Time;durP1;ratioP1;P1;durP2;ratioP2;P2;SDS_P1;SDS_P2;PMS_P1;PMS_P2;Temp;Humidity;BMP_temperature;BMP_pressure;BME280_temperature;BME280_humidity;BME280_pressure;Samples;Min_cycle;Max_cycle;Signal;HPM_P1;HPM_P2
2022/05/23 05:49:00;;;;;;;8.20;2.20;;;;;;;;;;4840820;29;20540;-57
2022/05/23 05:51:27;;;;;;;7.43;2.20;;;;;;;;;;4842314;29;20045;-57
2022/05/23 05:53:53;;;;;;;6.63;2.20;;;;;;;;;;4842362;29;20041;-56
2022/05/23 05:56:19;;;;;;;9.18;1.88;;;;;;;;;;4842385;29;20104;-57
2022/05/23 05:58:45;;;;;;;7.00;2.22;;;;;;;;;;4842257;29;20561;-56
2022/05/23 06:01:11;;;;;;;7.85;2.50;;;;;;;;;;4842156;29;20048;-56
2022/05/23 06:03:39;;;;;;;7.93;2.47;;;;;;;;;;4841325;29;20022;-56
2022/05/23 06:11:45;;;;;;;4.40;1.80;;;;;;;;;;4803162;29;20050;-57
2022/05/23 06:14:11;;;;;;;6.72;2.10;;;;;;;;;;4803440;29;20053;-58
2022/05/23 06:16:38;;;;;;;7.03;2.75;;;;;;;;;;4802745;29;20102;-57
2022/05/23 06:19:04;;;;;;;5.72;2.70;;;;;;;;;;4803365;29;20134;-59
2022/05/23 06:21:30;;;;;;;6.88;3.92;;;;;;;;;;4803500;29;20041;-58
2022/05/23 06:23:57;;;;;;;7.55;3.35;;;;;;;;;;4803121;29;20035;-58
2022/05/23 06:26:24;;;;;;;8.30;3.72;;;;;;;;;;4803434;29;20035;-61
2022/05/23 06:28:50;;;;;;;9.55;3.20;;;;;;;;;;4803050;29;20117;-61
2022/05/23 06:31:17;;;;;;;8.85;3.03;;;;;;;;;;4802891;29;20591;-60
2022/05/23 06:33:43;;;;;;;8.27;3.30;;;;;;;;;;4801693;29;20086;-60
2022/05/23 06:36:09;;;;;;;5.95;3.20;;;;;;;;;;4801900;29;20241;-61
2022/05/23 06:38:36;;;;;;;8.30;3.90;;;;;;;;;;4801807;29;20043;-59
2022/05/23 06:41:04;;;;;;;8.35;3.80;;;;;;;;;;4801260;29;20387;-59
2022/05/23 06:43:30;;;;;;;6.38;3.70;;;;;;;;;;4801630;29;20665;-59
2022/05/23 06:45:56;;;;;;;7.82;3.60;;;;;;;;;;4829052;29;20064;-59
2022/05/23 06:48:23;;;;;;;7.90;3.67;;;;;;;;;;4856723;29;20141;-58
2022/05/23 06:50:50;;;;;;;8.30;4.30;;;;;;;;;;4859004;29;20057;-60
2022/05/23 06:53:19;;;;;;;9.98;4.13;;;;;;;;;;4858593;29;20037;-59
2022/05/23 06:55:45;;;;;;;12.23;3.92;;;;;;;;;;4856703;29;20030;-59
2022/05/23 06:58:11;;;;;;;11.63;4.72;;;;;;;;;;4858728;29;20029;-60
2022/05/23 07:00:38;;;;;;;11.85;5.47;;;;;;;;;;4858303;29;20505;-59
2022/05/23 07:03:04;;;;;;;13.10;6.15;;;;;;;;;;4856199;29;20045;-58
2022/05/23 07:13:45;;;;;;;8.60;4.25;;;;;;;;;;4857323;29;20082;-60
2022/05/23 07:16:13;;;;;;;10.73;4.60;;;;;;;;;;4856878;29;20037;-59
2022/05/23 07:18:40;;;;;;;10.88;4.68;;;;;;;;;;4857668;29;20056;-57
2022/05/23 07:21:07;;;;;;;11.00;3.60;;;;;;;;;;4858760;29;20021;-59
2022/05/23 07:23:35;;;;;;;11.10;3.70;;;;;;;;;;4858313;29;20029;-59
2022/05/23 07:26:01;;;;;;;9.73;3.95;;;;;;;;;;4859225;29;20101;-59
2022/05/23 07:28:27;;;;;;;7.28;3.50;;;;;;;;;;4857340;29;20386;-62
2022/05/23 07:30:54;;;;;;;9.85;3.45;;;;;;;;;;4859435;29;20148;-59
2022/05/23 07:33:20;;;;;;;6.63;2.78;;;;;;;;;;4859545;29;20139;-59
2022/05/23 07:35:46;;;;;;;10.52;3.10;;;;;;;;;;4858449;29;20032;-59
2022/05/23 07:38:13;;;;;;;8.85;4.00;;;;;;;;;;4858589;29;20041;-59
2022/05/23 07:40:39;;;;;;;11.15;3.35;;;;;;;;;;4859089;29;20109;-59
2022/05/23 07:43:05;;;;;;;7.28;2.92;;;;;;;;;;4858619;29;20064;-59
2022/05/23 07:45:31;;;;;;;8.00;3.05;;;;;;;;;;4858538;29;20060;-60
2022/05/23 07:47:57;;;;;;;9.88;3.60;;;;;;;;;;4857989;29;20058;-59
2022/05/23 07:50:23;;;;;;;8.13;3.72;;;;;;;;;;4872396;29;20025;-59
2022/05/23 08:01:04;;;;;;;8.90;3.20;;;;;;;;;;4837142;29;20036;-60
2022/05/23 08:03:30;;;;;;;7.88;2.92;;;;;;;;;;4837188;29;20034;-61
2022/05/23 08:05:56;;;;;;;5.78;2.58;;;;;;;;;;4837629;29;20109;-60
2022/05/23 08:08:22;;;;;;;7.10;2.67;;;;;;;;;;4838096;29;20034;-59
2022/05/23 08:10:48;;;;;;;8.57;2.15;;;;;;;;;;4838089;29;20041;-61
2022/05/23 08:13:14;;;;;;;6.30;2.10;;;;;;;;;;4822641;29;20046;-60
2022/05/23 08:15:41;;;;;;;7.93;2.30;;;;;;;;;;4837936;29;20063;-60
2022/05/23 08:18:08;;;;;;;6.32;1.52;;;;;;;;;;4837702;29;20038;-62
2022/05/23 08:20:34;;;;;;;4.47;1.38;;;;;;;;;;4837991;29;20538;-62
2022/05/23 08:23:01;;;;;;;4.45;0.90;;;;;;;;;;4837892;29;20139;-62
2022/05/23 08:25:27;;;;;;;3.88;1.20;;;;;;;;;;4837651;29;20049;-60
2022/05/23 08:27:53;;;;;;;4.63;1.70;;;;;;;;;;4837401;29;20045;-59
2022/05/23 08:30:20;;;;;;;4.57;1.70;;;;;;;;;;4840026;29;20451;-62
2022/05/23 08:32:46;;;;;;;5.05;1.45;;;;;;;;;;4852094;29;20096;-60
2022/05/23 08:35:12;;;;;;;3.88;1.58;;;;;;;;;;4862026;29;20034;-59
2022/05/23 08:37:39;;;;;;;5.90;1.40;;;;;;;;;;4862179;29;20030;-59
2022/05/23 08:40:06;;;;;;;5.53;1.20;;;;;;;;;;4862331;29;20044;-60
2022/05/23 08:42:38;;;;;;;4.32;1.60;;;;;;;;;;4861975;29;20097;-59
2022/05/23 08:45:04;;;;;;;;;;;;;;;;;;4862688;29;20445;-59
2022/05/23 08:47:35;;;;;;;5.72;1.70;;;;;;;;;;4861117;29;19927;-59
2022/05/23 08:50:09;;;;;;;3.67;1.73;;;;;;;;;;4861221;29;20029;-61
2022/05/23 08:52:37;;;;;;;6.88;1.75;;;;;;;;;;4861256;29;20121;-60
2022/05/23 08:55:24;;;;;;;5.10;1.80;;;;;;;;;;4861875;29;20029;-60
2022/05/23 08:58:00;;;;;;;5.35;1.40;;;;;;;;;;4861761;29;20036;-60
2022/05/23 09:00:31;;;;;;;3.17;1.10;;;;;;;;;;4861250;29;20451;-60
2022/05/23 09:03:02;;;;;;;2.92;1.23;;;;;;;;;;4861543;29;20434;-59
2022/05/23 09:05:32;;;;;;;3.22;1.50;;;;;;;;;;4861441;29;20037;-62
2022/05/23 09:08:19;;;;;;;4.78;1.50;;;;;;;;;;4861524;29;20033;-60
2022/05/23 09:10:54;;;;;;;4.05;1.40;;;;;;;;;;4861514;29;20084;-59
2022/05/23 09:13:21;;;;;;;5.88;1.95;;;;;;;;;;4861292;29;20433;-60
2022/05/23 09:15:50;;;;;;;3.33;1.30;;;;;;;;;;4861334;29;20369;-60
2022/05/23 09:18:18;;;;;;;4.43;1.70;;;;;;;;;;4861106;29;20045;-59
2022/05/23 09:20:49;;;;;;;5.05;1.25;;;;;;;;;;4861390;29;20130;-61
2022/05/23 09:23:42;;;;;;;7.85;1.40;;;;;;;;;;4861041;29;20029;-60
2022/05/23 09:26:19;;;;;;;8.43;1.50;;;;;;;;;;4857977;29;20489;-60
2022/05/23 09:28:45;;;;;;;4.70;1.38;;;;;;;;;;4861234;29;20529;-59
2022/05/23 09:31:18;;;;;;;4.32;1.25;;;;;;;;;;4860693;29;20044;-59
2022/05/23 09:33:46;;;;;;;4.43;1.48;;;;;;;;;;4861275;29;20122;-58
2022/05/23 09:36:15;;;;;;;5.45;1.38;;;;;;;;;;4861111;29;20037;-59
2022/05/23 09:38:58;;;;;;;4.07;1.33;;;;;;;;;;4858952;29;20042;-60
2022/05/23 09:41:28;;;;;;;6.93;1.65;;;;;;;;;;4859926;29;20041;-60
2022/05/23 09:49:24;;;;;;;7.75;1.55;;;;;;;;;;4861135;29;20578;-60
2022/05/23 09:51:55;;;;;;;4.25;1.50;;;;;;;;;;4860172;29;20470;-61
2022/05/23 09:54:30;;;;;;;4.53;1.35;;;;;;;;;;4860179;29;20041;-63
2022/05/23 09:56:57;;;;;;;4.03;1.48;;;;;;;;;;4860338;29;20029;-61
2022/05/23 09:59:26;;;;;;;3.83;1.20;;;;;;;;;;4860048;29;20029;-61
2022/05/23 10:01:53;;;;;;;3.67;1.38;;;;;;;;;;4859617;29;20029;-59
2022/05/23 10:04:29;;;;;;;4.68;1.25;;;;;;;;;;4859663;29;20034;-59
2022/05/23 10:06:56;;;;;;;6.95;1.65;;;;;;;;;;4859671;29;20057;-58
2022/05/23 10:09:32;;;;;;;5.05;1.35;;;;;;;;;;4859834;29;20045;-59
2022/05/23 10:12:04;;;;;;;6.13;1.50;;;;;;;;;;4859760;29;20120;-57
2022/05/23 10:14:42;;;;;;;4.57;1.50;;;;;;;;;;4860082;29;20549;-58
2022/05/23 10:17:08;;;;;;;5.28;1.40;;;;;;;;;;4860165;29;20053;-58
2022/05/23 10:19:36;;;;;;;4.55;1.20;;;;;;;;;;4860288;29;20033;-61
2022/05/23 10:22:07;;;;;;;2.88;1.20;;;;;;;;;;4859784;29;20186;-61
2022/05/23 10:27:53;;;;;;;4.10;1.00;;;;;;;;;;4857784;29;20445;-58
2022/05/23 10:30:19;;;;;;;;;;;;;;;;;;4860878;29;20029;-60
2022/05/23 10:32:50;;;;;;;4.90;1.35;;;;;;;;;;4860234;29;19915;-58
2022/05/23 10:35:19;;;;;;;3.97;1.60;;;;;;;;;;4860141;29;20025;-60
2022/05/23 10:37:46;;;;;;;4.90;1.45;;;;;;;;;;4860039;29;20507;-60
2022/05/23 10:43:02;;;;;;;5.35;1.23;;;;;;;;;;4860394;29;20047;-61
2022/05/23 10:45:33;;;;;;;4.78;1.40;;;;;;;;;;4859716;29;20426;-57
2022/05/23 10:48:02;;;;;;;5.72;1.60;;;;;;;;;;4859511;29;20061;-60
2022/05/23 10:50:34;;;;;;;3.90;1.35;;;;;;;;;;4860014;29;20028;-61
2022/05/23 10:53:00;;;;;;;3.67;1.20;;;;;;;;;;4859667;29;20135;-64
2022/05/23 10:55:44;;;;;;;5.75;1.40;;;;;;;;;;4859779;29;20029;-58
2022/05/23 10:58:30;;;;;;;4.18;1.30;;;;;;;;;;4859857;29;20037;-59
2022/05/23 11:00:56;;;;;;;3.38;1.17;;;;;;;;;;4859681;29;20033;-60
2022/05/23 11:03:35;;;;;;;2.95;1.20;;;;;;;;;;4859607;29;20025;-58
2022/05/23 11:06:06;;;;;;;4.93;1.40;;;;;;;;;;4859643;29;20066;-59
2022/05/23 11:08:51;;;;;;;3.70;1.15;;;;;;;;;;4859542;29;20529;-58
2022/05/23 11:11:17;;;;;;;5.32;1.25;;;;;;;;;;4859597;29;20081;-59
2022/05/23 11:13:59;;;;;;;2.90;1.38;;;;;;;;;;4859498;29;20049;-58
2022/05/23 11:16:37;;;;;;;5.35;1.38;;;;;;;;;;4859476;29;20074;-58
2022/05/23 11:19:13;;;;;;;2.22;1.00;;;;;;;;;;4859187;29;20099;-61
2022/05/23 11:21:43;;;;;;;1.98;1.13;;;;;;;;;;4859493;29;20485;-59
2022/05/23 11:24:14;;;;;;;4.30;1.10;;;;;;;;;;4859203;29;20034;-60
2022/05/23 11:26:43;;;;;;;4.22;1.30;;;;;;;;;;4859140;29;20481;-58
2022/05/23 11:35:03;;;;;;;5.55;1.20;;;;;;;;;;4859143;29;20457;-62
2022/05/23 11:37:45;;;;;;;2.27;1.33;;;;;;;;;;4873376;29;20029;-59
2022/05/23 11:40:11;;;;;;;3.75;1.20;;;;;;;;;;4859188;29;20512;-60
2022/05/23 11:42:37;;;;;;;3.55;1.33;;;;;;;;;;4859022;29;20082;-60
2022/05/23 11:47:52;;;;;;;4.40;1.63;;;;;;;;;;4858649;29;20417;-61
2022/05/23 11:50:23;;;;;;;5.70;1.25;;;;;;;;;;4858877;29;20033;-60
2022/05/23 11:53:09;;;;;;;3.85;1.85;;;;;;;;;;4858684;29;20041;-60
2022/05/23 11:55:50;;;;;;;4.47;1.17;;;;;;;;;;4858620;29;20068;-61
2022/05/23 11:58:24;;;;;;;4.18;1.35;;;;;;;;;;4857844;29;20069;-60
2022/05/23 12:01:11;;;;;;;1.65;1.02;;;;;;;;;;4858909;29;20093;-60
2022/05/23 12:03:56;;;;;;;2.90;1.17;;;;;;;;;;4858110;29;20066;-61
2022/05/23 12:06:25;;;;;;;3.22;1.02;;;;;;;;;;4858651;29;20502;-60
2022/05/23 12:09:11;;;;;;;2.45;0.90;;;;;;;;;;4858821;29;20040;-60
2022/05/23 12:11:41;;;;;;;2.95;1.10;;;;;;;;;;4858991;29;20486;-60
2022/05/23 12:14:20;;;;;;;4.35;1.50;;;;;;;;;;4858600;29;20041;-61
2022/05/23 12:16:55;;;;;;;3.20;1.15;;;;;;;;;;4858473;29;20029;-61
2022/05/23 12:19:40;;;;;;;5.10;1.27;;;;;;;;;;4858478;29;20402;-60
2022/05/23 12:22:24;;;;;;;4.00;1.15;;;;;;;;;;4858554;29;20026;-60
2022/05/23 12:24:56;;;;;;;2.90;1.30;;;;;;;;;;4858796;29;20037;-60
2022/05/23 12:27:22;;;;;;;;;;;;;;;;;;4859062;29;20037;-60
2022/05/23 12:29:48;;;;;;;3.45;1.08;;;;;;;;;;4858812;29;19915;-60
2022/05/23 12:32:14;;;;;;;2.17;1.00;;;;;;;;;;4858496;29;20068;-60
2022/05/23 12:34:42;;;;;;;1.98;1.20;;;;;;;;;;4858276;29;20073;-60
2022/05/23 12:37:14;;;;;;;2.75;1.50;;;;;;;;;;4872579;29;20033;-60
2022/05/23 12:39:44;;;;;;;3.38;1.40;;;;;;;;;;4858378;29;20401;-61
2022/05/23 12:42:19;;;;;;;5.95;1.60;;;;;;;;;;4858328;29;20492;-61
2022/05/23 12:44:49;;;;;;;4.00;1.40;;;;;;;;;;4858560;29;20466;-60
2022/05/23 12:47:34;;;;;;;17.30;1.80;;;;;;;;;;4857873;29;20054;-60
2022/05/23 12:50:06;;;;;;;2.58;1.40;;;;;;;;;;4872607;29;20393;-60
2022/05/23 12:52:35;;;;;;;2.78;1.40;;;;;;;;;;4858078;29;20076;-60
2022/05/23 12:55:05;;;;;;;2.38;1.27;;;;;;;;;;4858164;29;20040;-60
2022/05/23 12:57:38;;;;;;;4.15;1.23;;;;;;;;;;4858511;29;20060;-60
2022/05/23 13:00:15;;;;;;;2.58;1.10;;;;;;;;;;4858502;29;20029;-61
2022/05/23 13:02:56;;;;;;;5.50;1.27;;;;;;;;;;4858309;29;20105;-60
2022/05/23 13:05:33;;;;;;;4.40;1.35;;;;;;;;;;4858360;29;20026;-60
2022/05/23 13:08:06;;;;;;;2.22;1.10;;;;;;;;;;4858313;29;20030;-60
2022/05/23 13:10:32;;;;;;;2.58;1.30;;;;;;;;;;4858369;29;20025;-60
2022/05/23 13:13:02;;;;;;;2.83;1.08;;;;;;;;;;4858613;29;20073;-60
2022/05/23 13:15:30;;;;;;;3.92;1.40;;;;;;;;;;4859628;29;20158;-60
2022/05/23 13:23:29;;;;;;;6.07;1.35;;;;;;;;;;4861693;29;20049;-60
2022/05/23 13:25:56;;;;;;;4.40;1.00;;;;;;;;;;4861629;29;20026;-62
2022/05/23 13:28:22;;;;;;;2.50;0.90;;;;;;;;;;4861508;29;20541;-61
2022/05/23 13:30:50;;;;;;;3.47;1.02;;;;;;;;;;4861560;29;20029;-60
2022/05/23 13:33:17;;;;;;;2.78;1.10;;;;;;;;;;4860435;29;20045;-59
2022/05/23 13:35:44;;;;;;;4.25;1.10;;;;;;;;;;4860573;29;20051;-60
2022/05/23 13:38:16;;;;;;;5.28;1.13;;;;;;;;;;4861228;29;20041;-60
2022/05/23 13:40:45;;;;;;;5.75;1.67;;;;;;;;;;4861414;29;20029;-61
2022/05/23 13:43:16;;;;;;;4.40;1.40;;;;;;;;;;4860962;29;20389;-59
2022/05/23 13:45:43;;;;;;;3.30;1.05;;;;;;;;;;4861104;29;20038;-60
2022/05/23 13:48:14;;;;;;;4.25;1.17;;;;;;;;;;4860735;29;20795;-59
2022/05/23 13:50:44;;;;;;;6.23;1.67;;;;;;;;;;4861039;29;20025;-60
2022/05/23 13:53:13;;;;;;;1.92;1.10;;;;;;;;;;4860753;29;20037;-60
2022/05/23 13:55:42;;;;;;;3.28;1.20;;;;;;;;;;4860847;29;20033;-61
2022/05/23 13:58:13;;;;;;;3.38;1.10;;;;;;;;;;4860958;29;20033;-60
2022/05/23 14:00:42;;;;;;;2.58;1.17;;;;;;;;;;4860835;29;20089;-61
2022/05/23 14:03:13;;;;;;;3.28;1.27;;;;;;;;;;4860727;29;20038;-60
2022/05/23 14:05:44;;;;;;;3.60;1.20;;;;;;;;;;4860668;29;20045;-62
2022/05/23 14:08:11;;;;;;;4.43;1.30;;;;;;;;;;4860757;29;20082;-62
2022/05/23 14:10:41;;;;;;;5.85;1.30;;;;;;;;;;4860570;29;20038;-60
2022/05/23 14:13:08;;;;;;;6.38;1.75;;;;;;;;;;4874671;29;20482;-60
2022/05/23 14:15:34;;;;;;;3.35;1.38;;;;;;;;;;4860396;29;20268;-60
2022/05/23 14:18:01;;;;;;;2.00;0.95;;;;;;;;;;4860406;29;20059;-60
2022/05/23 14:20:30;;;;;;;2.78;1.20;;;;;;;;;;4860382;29;20504;-61
2022/05/23 14:23:11;;;;;;;1.85;1.15;;;;;;;;;;4874565;29;20116;-62
2022/05/23 14:25:44;;;;;;;3.47;1.17;;;;;;;;;;4860462;29;20041;-60
2022/05/23 14:28:14;;;;;;;4.82;1.33;;;;;;;;;;4859693;29;20030;-60
2022/05/23 14:30:42;;;;;;;5.13;1.27;;;;;;;;;;4860419;29;20398;-60
2022/05/23 14:33:29;;;;;;;3.78;1.30;;;;;;;;;;4859699;29;20080;-60
2022/05/23 14:35:56;;;;;;;4.53;1.45;;;;;;;;;;4860082;29;20030;-62
2022/05/23 14:38:30;;;;;;;3.45;1.88;;;;;;;;;;4860045;29;20086;-60
2022/05/23 14:40:57;;;;;;;3.25;1.58;;;;;;;;;;4860154;29;20093;-60
2022/05/23 14:43:29;;;;;;;3.22;1.67;;;;;;;;;;4873985;29;20038;-60
2022/05/23 14:45:59;;;;;;;2.07;1.23;;;;;;;;;;4858551;29;20398;-60
2022/05/23 14:48:30;;;;;;;3.55;1.15;;;;;;;;;;4859289;29;20269;-61
2022/05/23 14:51:05;;;;;;;4.00;1.25;;;;;;;;;;4859734;29;20030;-60
2022/05/23 14:56:22;;;;;;;2.65;1.30;;;;;;;;;;4859657;29;20044;-60
2022/05/23 15:01:37;;;;;;;2.17;1.35;;;;;;;;;;4859324;29;20044;-59
2022/05/23 15:04:05;;;;;;;3.85;1.60;;;;;;;;;;4859612;29;20022;-62
2022/05/23 15:06:31;;;;;;;5.75;1.52;;;;;;;;;;4859902;29;20034;-62
2022/05/23 15:08:59;;;;;;;5.00;1.70;;;;;;;;;;4859608;29;20390;-61
2022/05/23 15:11:30;;;;;;;3.85;1.40;;;;;;;;;;4859596;29;20489;-58
2022/05/23 15:14:00;;;;;;;5.60;1.48;;;;;;;;;;4859306;29;20068;-61
2022/05/23 15:16:30;;;;;;;4.65;1.45;;;;;;;;;;4859585;29;20390;-59
2022/05/23 15:18:58;;;;;;;2.00;1.15;;;;;;;;;;4859267;29;20428;-60
2022/05/23 15:21:24;;;;;;;4.40;1.33;;;;;;;;;;4858934;29;20697;-62
2022/05/23 15:23:51;;;;;;;4.57;1.60;;;;;;;;;;4859480;29;20037;-58
2022/05/23 15:26:20;;;;;;;3.80;1.40;;;;;;;;;;4859247;29;20021;-59
2022/05/23 15:28:48;;;;;;;7.15;2.10;;;;;;;;;;4859587;29;20035;-60
2022/05/23 15:31:16;;;;;;;4.50;1.42;;;;;;;;;;4859167;29;20026;-61
2022/05/23 15:33:42;;;;;;;4.18;1.98;;;;;;;;;;4859114;29;20446;-60
2022/05/23 15:36:08;;;;;;;3.95;1.50;;;;;;;;;;4859016;29;20036;-58
2022/05/23 15:38:35;;;;;;;6.40;1.50;;;;;;;;;;4858282;29;20505;-58
2022/05/23 15:41:02;;;;;;;4.53;1.58;;;;;;;;;;4858940;29;20093;-61
2022/05/23 15:43:29;;;;;;;5.35;1.77;;;;;;;;;;4859130;29;20097;-59
2022/05/23 15:45:55;;;;;;;6.07;1.52;;;;;;;;;;4858896;29;20397;-63
2022/05/23 15:48:23;;;;;;;5.05;1.60;;;;;;;;;;4858762;29;20058;-59
2022/05/23 15:50:49;;;;;;;3.05;1.67;;;;;;;;;;4858806;29;20041;-59
2022/05/23 15:53:16;;;;;;;4.18;1.90;;;;;;;;;;4858859;29;20048;-62
2022/05/23 15:55:44;;;;;;;3.28;2.08;;;;;;;;;;4858797;29;20394;-63
2022/05/23 15:58:13;;;;;;;5.53;1.70;;;;;;;;;;4858893;29;20025;-59
2022/05/23 16:00:39;;;;;;;3.60;1.45;;;;;;;;;;4855909;29;20382;-62
2022/05/23 16:03:08;;;;;;;4.30;1.77;;;;;;;;;;4850476;29;20034;-59
2022/05/23 16:05:34;;;;;;;4.28;1.73;;;;;;;;;;4851452;29;20084;-63
2022/05/23 16:08:00;;;;;;;2.72;1.33;;;;;;;;;;4852893;29;20038;-60
2022/05/23 16:10:27;;;;;;;6.20;1.90;;;;;;;;;;4858728;29;20033;-59
2022/05/23 16:12:58;;;;;;;4.40;1.38;;;;;;;;;;4858689;29;20052;-59
2022/05/23 16:15:24;;;;;;;4.60;1.67;;;;;;;;;;4858819;29;20030;-61
2022/05/23 16:17:52;;;;;;;4.22;1.35;;;;;;;;;;4858766;29;20048;-59
2022/05/23 16:20:19;;;;;;;5.15;1.45;;;;;;;;;;4858120;29;20031;-62
2022/05/23 16:22:50;;;;;;;7.93;1.95;;;;;;;;;;4858506;29;20419;-61
2022/05/23 16:25:16;;;;;;;6.20;1.55;;;;;;;;;;4858523;29;20037;-63
2022/05/23 16:27:43;;;;;;;4.57;1.30;;;;;;;;;;4858632;29;20041;-61
2022/05/23 16:30:12;;;;;;;4.30;1.00;;;;;;;;;;4858508;29;20059;-61
2022/05/23 16:38:07;;;;;;;3.97;1.38;;;;;;;;;;4857579;29;20561;-61
2022/05/23 16:40:33;;;;;;;3.28;1.20;;;;;;;;;;4858765;29;20789;-60
2022/05/23 16:42:59;;;;;;;2.90;1.30;;;;;;;;;;4858475;29;20034;-60
2022/05/23 16:45:25;;;;;;;4.97;1.48;;;;;;;;;;4858394;29;20036;-59
2022/05/23 16:47:53;;;;;;;3.85;1.45;;;;;;;;;;4858052;29;20082;-59
2022/05/23 16:50:19;;;;;;;8.02;1.65;;;;;;;;;;4859767;29;20030;-58
2022/05/23 16:52:45;;;;;;;3.42;1.40;;;;;;;;;;4861870;29;20565;-62
2022/05/23 16:55:12;;;;;;;3.15;1.33;;;;;;;;;;4861311;29;20378;-58
2022/05/23 16:57:38;;;;;;;5.32;1.60;;;;;;;;;;4862090;29;20029;-58
2022/05/23 17:00:04;;;;;;;2.33;1.40;;;;;;;;;;4861641;29;20039;-61
2022/05/23 17:02:30;;;;;;;3.95;1.27;;;;;;;;;;4861797;29;20030;-60
2022/05/23 17:04:56;;;;;;;4.32;1.63;;;;;;;;;;4861688;29;20036;-58
2022/05/23 17:07:22;;;;;;;4.30;1.38;;;;;;;;;;4862012;29;20057;-60
2022/05/23 17:09:48;;;;;;;3.72;1.52;;;;;;;;;;4861636;29;20040;-60
2022/05/23 17:12:15;;;;;;;4.65;1.50;;;;;;;;;;4861752;29;20032;-61
2022/05/23 17:14:41;;;;;;;3.55;1.50;;;;;;;;;;4861992;29;20500;-59
2022/05/23 17:17:07;;;;;;;4.57;2.00;;;;;;;;;;4861446;29;20044;-59
2022/05/23 17:19:33;;;;;;;3.88;1.77;;;;;;;;;;4861125;29;20038;-58
2022/05/23 17:21:59;;;;;;;3.72;1.25;;;;;;;;;;4861538;29;20065;-58
2022/05/23 17:24:25;;;;;;;3.70;1.45;;;;;;;;;;4861367;29;20029;-60
2022/05/23 17:26:51;;;;;;;4.40;1.40;;;;;;;;;;4862153;29;20026;-58
2022/05/23 17:29:17;;;;;;;3.40;1.63;;;;;;;;;;4862266;29;20113;-58
2022/05/23 17:31:43;;;;;;;2.92;1.40;;;;;;;;;;4861776;29;20036;-59
2022/05/23 17:34:10;;;;;;;3.90;1.45;;;;;;;;;;4861528;29;20033;-58
2022/05/23 17:36:36;;;;;;;6.82;1.33;;;;;;;;;;4859677;29;20104;-62
2022/05/23 17:39:02;;;;;;;4.72;1.50;;;;;;;;;;4851258;29;20046;-60
2022/05/23 17:41:28;;;;;;;6.90;1.88;;;;;;;;;;4849299;29;20496;-62
2022/05/23 17:43:54;;;;;;;5.20;1.80;;;;;;;;;;4851702;29;20041;-62
2022/05/23 17:46:24;;;;;;;5.07;1.73;;;;;;;;;;4852244;29;20089;-62
2022/05/23 17:48:50;;;;;;;6.22;1.92;;;;;;;;;;4860925;29;20520;-61
2022/05/23 17:51:16;;;;;;;4.07;1.80;;;;;;;;;;4860616;29;20033;-59
2022/05/23 17:53:42;;;;;;;3.13;1.52;;;;;;;;;;4860695;29;20445;-63
2022/05/23 17:56:09;;;;;;;6.65;1.90;;;;;;;;;;4860827;29;20025;-62
2022/05/23 17:58:35;;;;;;;7.50;1.90;;;;;;;;;;4860574;29;20080;-61
2022/05/23 18:01:01;;;;;;;4.40;1.58;;;;;;;;;;4860335;29;20036;-58
2022/05/23 18:03:28;;;;;;;4.35;1.70;;;;;;;;;;4860790;29;20032;-58
2022/05/23 18:05:54;;;;;;;3.25;1.50;;;;;;;;;;4860212;29;20056;-61
2022/05/23 18:08:25;;;;;;;5.55;1.73;;;;;;;;;;4860402;29;20477;-61
2022/05/23 18:10:51;;;;;;;4.13;1.90;;;;;;;;;;4860671;29;20040;-58
2022/05/23 18:13:17;;;;;;;5.45;2.25;;;;;;;;;;4856976;29;20036;-61
2022/05/23 18:19:08;;;;;;;5.90;2.42;;;;;;;;;;4859593;29;20041;-61
2022/05/23 18:21:15;;;;;;;6.35;3.65;;;;;;;;;;4859090;29;20034;-63
2022/05/23 18:23:41;;;;;;;7.10;3.60;;;;;;;;;;4860099;29;20390;-58
2022/05/23 18:26:08;;;;;;;6.97;2.75;;;;;;;;;;4859829;29;20033;-61
2022/05/23 18:28:34;;;;;;;6.50;2.65;;;;;;;;;;4860003;29;20396;-62
2022/05/23 18:31:00;;;;;;;6.18;2.53;;;;;;;;;;4860246;29;20133;-59
2022/05/23 18:33:27;;;;;;;8.82;2.80;;;;;;;;;;4860266;29;20212;-59
2022/05/23 18:35:53;;;;;;;7.03;2.83;;;;;;;;;;4859435;29;20064;-62
2022/05/23 18:38:19;;;;;;;5.85;2.67;;;;;;;;;;4859593;29;20033;-63
2022/05/23 18:40:45;;;;;;;9.48;2.92;;;;;;;;;;4859426;29;20049;-59
2022/05/23 18:43:11;;;;;;;7.25;2.00;;;;;;;;;;4858554;29;20029;-63
2022/05/23 18:45:37;;;;;;;5.57;2.13;;;;;;;;;;4858497;29;20044;-58
2022/05/23 18:50:48;;;;;;;5.68;2.13;;;;;;;;;;4841432;29;20508;-61
2022/05/23 18:53:14;;;;;;;5.22;2.20;;;;;;;;;;4840575;29;20042;-61
2022/05/23 18:55:42;;;;;;;4.15;1.73;;;;;;;;;;4841479;29;20045;-59
2022/05/23 18:58:15;;;;;;;4.55;2.00;;;;;;;;;;4841142;29;20037;-61
2022/05/23 19:00:41;;;;;;;4.82;2.40;;;;;;;;;;4841184;29;20126;-62
2022/05/23 19:03:08;;;;;;;6.90;1.95;;;;;;;;;;4841154;29;20078;-61
2022/05/23 19:05:34;;;;;;;10.68;2.22;;;;;;;;;;4840811;29;20030;-62
2022/05/23 19:08:00;;;;;;;6.40;2.22;;;;;;;;;;4849250;29;20096;-59
2022/05/23 19:10:28;;;;;;;5.28;1.80;;;;;;;;;;4858107;29;20046;-60
2022/05/23 19:12:55;;;;;;;4.78;1.98;;;;;;;;;;4858542;29;20049;-60
2022/05/23 19:15:21;;;;;;;3.28;1.52;;;;;;;;;;4859284;29;20041;-61
2022/05/23 19:17:48;;;;;;;5.05;1.60;;;;;;;;;;4858908;29;20045;-61
2022/05/23 19:20:14;;;;;;;7.78;1.60;;;;;;;;;;4859525;29;20033;-62
2022/05/23 19:22:40;;;;;;;4.47;1.73;;;;;;;;;;4858501;29;20038;-62
2022/05/23 19:25:06;;;;;;;3.90;1.27;;;;;;;;;;4859438;29;20054;-61
2022/05/23 19:27:33;;;;;;;5.25;1.88;;;;;;;;;;4859363;29;20024;-61
2022/05/23 19:29:59;;;;;;;5.00;1.48;;;;;;;;;;4857768;29;20049;-61
2022/05/23 19:32:25;;;;;;;4.10;1.40;;;;;;;;;;4858013;29;20033;-61
2022/05/23 19:34:51;;;;;;;4.78;1.40;;;;;;;;;;4858538;29;20044;-62
2022/05/23 19:37:17;;;;;;;5.00;1.50;;;;;;;;;;4857749;29;20013;-63
2022/05/23 19:39:43;;;;;;;8.60;3.95;;;;;;;;;;4858433;29;20038;-61
2022/05/23 19:42:14;;;;;;;3.00;1.80;;;;;;;;;;4858947;29;20037;-62
2022/05/23 19:44:40;;;;;;;5.93;1.50;;;;;;;;;;4858526;29;20041;-62
2022/05/23 19:47:07;;;;;;;7.30;1.60;;;;;;;;;;4857993;29;20625;-61
2022/05/23 19:49:33;;;;;;;3.88;1.33;;;;;;;;;;4858244;29;20041;-63
2022/05/23 19:52:04;;;;;;;7.03;2.00;;;;;;;;;;4854358;29;20033;-63
2022/05/23 19:54:31;;;;;;;4.53;1.60;;;;;;;;;;4847631;29;20768;-59
2022/05/23 19:56:57;;;;;;;6.13;1.40;;;;;;;;;;4855195;29;20112;-60
2022/05/23 19:59:23;;;;;;;5.93;1.45;;;;;;;;;;4853111;29;20061;-61
2022/05/23 20:07:22;;;;;;;3.67;1.23;;;;;;;;;;4846795;29;20088;-62
2022/05/23 20:09:48;;;;;;;7.93;1.50;;;;;;;;;;4841686;29;20125;-60
2022/05/23 20:12:14;;;;;;;4.20;1.40;;;;;;;;;;4839849;29;20077;-59
2022/05/23 20:17:25;;;;;;;4.78;1.40;;;;;;;;;;4840221;29;20040;-60
2022/05/23 20:19:51;;;;;;;3.25;1.13;;;;;;;;;;4839970;29;20402;-60
2022/05/23 20:22:17;;;;;;;3.10;1.50;;;;;;;;;;4839890;29;20038;-61
2022/05/23 20:24:43;;;;;;;5.95;1.20;;;;;;;;;;4848739;29;20084;-61
2022/05/23 20:27:09;;;;;;;7.05;1.50;;;;;;;;;;4853268;29;20030;-61
2022/05/23 20:29:35;;;;;;;7.95;1.60;;;;;;;;;;4854636;29;20029;-61
2022/05/23 20:32:01;;;;;;;6.95;1.33;;;;;;;;;;4846766;29;20030;-62
2022/05/23 20:34:27;;;;;;;5.68;1.35;;;;;;;;;;4858246;29;20112;-62
2022/05/23 20:36:53;;;;;;;8.00;1.27;;;;;;;;;;4849157;29;20064;-62
2022/05/23 20:39:19;;;;;;;5.63;1.80;;;;;;;;;;4860767;29;20033;-62
2022/05/23 20:41:45;;;;;;;6.93;1.85;;;;;;;;;;4848197;29;20026;-62
2022/05/23 20:44:11;;;;;;;5.03;1.40;;;;;;;;;;4857615;29;20033;-62
2022/05/23 20:46:38;;;;;;;6.50;1.40;;;;;;;;;;4856841;29;20436;-62
2022/05/23 20:49:05;;;;;;;4.00;1.50;;;;;;;;;;4850153;29;20432;-62
2022/05/23 20:51:31;;;;;;;5.90;1.52;;;;;;;;;;4850137;29;20105;-62
2022/05/23 20:53:57;;;;;;;4.80;1.98;;;;;;;;;;4856768;29;20443;-62
2022/05/23 20:56:24;;;;;;;4.93;1.65;;;;;;;;;;4858828;29;20074;-62
2022/05/23 20:58:50;;;;;;;6.45;2.03;;;;;;;;;;4848191;29;20043;-62
2022/05/23 21:01:16;;;;;;;8.13;1.70;;;;;;;;;;4852059;29;20037;-62
2022/05/23 21:03:42;;;;;;;7.43;1.98;;;;;;;;;;4854878;29;20447;-62
2022/05/23 21:06:09;;;;;;;8.13;1.67;;;;;;;;;;4845321;29;20492;-62
2022/05/23 21:08:35;;;;;;;5.75;1.38;;;;;;;;;;4860781;29;20037;-62
2022/05/23 21:11:05;;;;;;;3.70;1.75;;;;;;;;;;4854124;29;20037;-62
2022/05/23 21:13:31;;;;;;;6.32;1.50;;;;;;;;;;4853499;29;20033;-61
2022/05/23 21:15:57;;;;;;;4.00;1.58;;;;;;;;;;4846954;29;20057;-62
2022/05/23 21:18:23;;;;;;;3.60;1.40;;;;;;;;;;4857669;29;20041;-62
2022/05/23 21:20:50;;;;;;;5.47;1.42;;;;;;;;;;4847830;29;20438;-62
2022/05/23 21:23:16;;;;;;;4.57;1.60;;;;;;;;;;4851493;29;20272;-62
2022/05/23 21:25:42;;;;;;;4.72;2.03;;;;;;;;;;4854260;29;20085;-62
2022/05/23 21:28:12;;;;;;;6.68;3.22;;;;;;;;;;4859945;29;20041;-61
2022/05/23 21:30:39;;;;;;;5.72;3.20;;;;;;;;;;4846297;29;20500;-61
2022/05/23 21:33:06;;;;;;;7.15;3.72;;;;;;;;;;4853102;29;20045;-61
2022/05/23 21:35:33;;;;;;;6.80;2.65;;;;;;;;;;4853011;29;20168;-61
2022/05/23 21:38:00;;;;;;;5.50;2.00;;;;;;;;;;4845189;29;20549;-62
2022/05/23 21:48:41;;;;;;;3.13;1.67;;;;;;;;;;4841845;29;20123;-60
2022/05/23 21:51:07;;;;;;;5.45;1.48;;;;;;;;;;4842019;29;20109;-58
2022/05/23 21:53:34;;;;;;;4.38;1.75;;;;;;;;;;4846948;29;20404;-59
2022/05/23 21:56:01;;;;;;;3.85;1.70;;;;;;;;;;4858516;29;20081;-59
2022/05/23 21:58:27;;;;;;;4.40;1.40;;;;;;;;;;4845258;29;20054;-59
2022/05/23 22:03:39;;;;;;;2.88;1.30;;;;;;;;;;4842423;29;20068;-58